Basin, Idaho
Current Conditions -  °F | °C
As of 11:53 AM on Saturday 25 Oct 2014 (Local Time) from KBYI Reporting Station
Clear Clear  
Wind Chill: 69°   Ceiling: Unl
Heat Index: 69°   Visibility: 10mi
Dew Point: 36°   Wind: 5mph
Humidity: 30%   Direction: 140°SE
Pressure: 29.94"   Gusts: NA
Location:  42.2256°N, 114.022°W
Report Text: KBYI 251753Z AUTO 14004KT 10SM CLR 21/02 A2994 RMK AO2 SLP112 T02060022 10206 20056 58007
Loading
Personal Weather Stations






























Interactive Weather Map
Tropical Storm Tracking
New forecast layout! Learn more

10-Day Weather Forecast

Advertisements
Track Severe Weather on mobile